Time;durP1;ratioP1;P1;durP2;ratioP2;P2;SDS_P1;SDS_P2;PMS_P1;PMS_P2;Temp;Humidity;BMP_temperature;BMP_pressure;BME280_temperature;BME280_humidity;BME280_pressure;Samples;Min_cycle;Max_cycle;Signal;HPM_P1;HPM_P2
2023/12/22 00:03:39;;;;;;;12.65;2.60;;;;;;;4.11;100.00;96154.91;15282644;19;20025;-57
2023/12/22 00:09:03;;;;;;;14.50;3.13;;;;;;;4.14;100.00;96170.53;15291240;19;20077;-57
2023/12/22 00:14:30;;;;;;;12.55;3.00;;;;;;;4.11;100.00;96218.03;15292557;19;20017;-56
2023/12/22 00:19:58;;;;;;;17.05;3.20;;;;;;;4.08;100.00;96162.41;15281618;19;20085;-57
2023/12/22 00:25:24;;;;;;;15.48;3.17;;;;;;;4.00;100.00;96177.44;15287600;19;20020;-51
2023/12/22 00:30:51;;;;;;;16.90;2.72;;;;;;;4.08;100.00;96168.59;15284963;19;20025;-55
2023/12/22 00:36:17;;;;;;;14.90;2.97;;;;;;;4.12;100.00;96198.38;15285467;19;20469;-52
2023/12/22 00:41:42;;;;;;;16.15;3.08;;;;;;;4.27;100.00;96166.44;15281409;19;20376;-57
2023/12/22 00:47:09;;;;;;;13.65;3.55;;;;;;;4.25;100.00;96173.78;15284682;19;20024;-56
2023/12/22 00:52:34;;;;;;;13.15;2.72;;;;;;;4.30;100.00;96201.56;15278532;19;20023;-51
2023/12/22 00:57:59;;;;;;;16.90;2.85;;;;;;;4.38;100.00;96195.34;15284800;19;20086;-53
2023/12/22 01:03:33;;;;;;;14.82;2.72;;;;;;;4.37;100.00;96180.38;15280156;19;20026;-53
2023/12/22 01:08:57;;;;;;;10.82;2.72;;;;;;;4.35;100.00;96179.72;15277610;19;20033;-53
2023/12/22 01:14:22;;;;;;;14.63;3.00;;;;;;;4.38;100.00;96198.03;15285098;19;20018;-56
2023/12/22 01:19:50;;;;;;;14.63;2.78;;;;;;;4.38;100.00;96202.53;15282207;19;20583;-56
2023/12/22 01:25:16;;;;;;;13.80;2.72;;;;;;;4.34;100.00;96182.56;15277419;19;20477;-56
2023/12/22 01:30:41;;;;;;;17.00;3.17;;;;;;;4.21;100.00;96215.97;15282812;19;20025;-51
2023/12/22 01:36:08;;;;;;;16.63;2.97;;;;;;;4.18;100.00;96202.97;15280357;19;20049;-54
2023/12/22 01:41:33;;;;;;;13.80;3.00;;;;;;;4.24;100.00;96218.28;15280742;19;20015;-55
2023/12/22 01:46:59;;;;;;;13.18;2.80;;;;;;;4.29;100.00;96212.41;15280910;19;20019;-55
2023/12/22 01:52:28;;;;;;;13.93;2.70;;;;;;;4.32;100.00;96204.09;15176707;19;2004076;-54
2023/12/22 01:57:54;;;;;;;10.18;2.35;;;;;;;4.35;100.00;96232.22;15276522;19;20078;-56
2023/12/22 02:03:19;;;;;;;10.50;2.28;;;;;;;4.38;100.00;96202.53;15279288;19;20123;-53
2023/12/22 02:08:47;;;;;;;11.90;2.30;;;;;;;4.37;100.00;96192.88;15278013;19;20021;-56
2023/12/22 02:14:12;;;;;;;10.00;2.20;;;;;;;4.36;100.00;96220.53;15280901;19;20082;-54
2023/12/22 02:19:50;;;;;;;8.95;2.10;;;;;;;4.35;100.00;96193.03;15279189;19;20359;-58
2023/12/22 02:25:17;;;;;;;10.10;2.10;;;;;;;4.35;100.00;96200.22;15278462;19;20021;-57
2023/12/22 02:30:48;;;;;;;6.78;1.77;;;;;;;4.33;100.00;96187.09;15272793;19;20086;-52
2023/12/22 02:36:15;;;;;;;11.88;2.35;;;;;;;4.36;100.00;96210.69;15275229;19;20021;-53
2023/12/22 02:41:43;;;;;;;8.43;2.10;;;;;;;4.35;100.00;96218.88;15274017;19;20538;-54
2023/12/22 02:47:08;;;;;;;14.95;2.60;;;;;;;4.27;100.00;96185.09;15276001;19;20382;-55
2023/12/22 02:52:33;;;;;;;6.93;1.80;;;;;;;4.25;100.00;96203.09;15275825;19;20053;-61
2023/12/22 02:58:00;;;;;;;8.25;1.73;;;;;;;4.15;100.00;96214.81;15278162;19;20014;-55
2023/12/22 03:03:25;;;;;;;8.15;1.90;;;;;;;3.98;100.00;96219.41;15270666;19;20021;-54
2023/12/22 03:08:50;;;;;;;6.03;1.60;;;;;;;3.80;100.00;96234.81;15274575;19;20021;-56
2023/12/22 03:14:17;;;;;;;6.72;1.70;;;;;;;3.59;100.00;96230.88;15277300;19;20014;-54
2023/12/22 03:19:42;;;;;;;8.55;1.92;;;;;;;3.39;100.00;96223.31;15275791;19;20045;-53
2023/12/22 03:25:06;;;;;;;10.40;2.33;;;;;;;3.23;100.00;96263.28;15277053;19;20019;-51
2023/12/22 03:30:35;;;;;;;9.82;1.70;;;;;;;3.09;100.00;96254.13;15274688;19;20026;-51
2023/12/22 03:36:00;;;;;;;10.90;2.22;;;;;;;3.02;100.00;96251.28;15285300;19;20019;-53
2023/12/22 03:41:25;;;;;;;6.72;1.63;;;;;;;3.06;100.00;96247.31;15286596;19;20025;-51
2023/12/22 03:46:52;;;;;;;6.22;1.40;;;;;;;2.96;100.00;96283.03;15288972;19;20019;-56
2023/12/22 03:52:17;;;;;;;7.60;1.38;;;;;;;2.89;100.00;96261.59;15286892;19;20336;-55
2023/12/22 03:57:41;;;;;;;6.40;1.60;;;;;;;2.86;100.00;96277.91;15287734;19;20471;-52
2023/12/22 04:03:15;;;;;;;8.90;1.85;;;;;;;2.85;100.00;96286.88;15284488;19;20028;-55
2023/12/22 04:08:40;;;;;;;6.20;1.55;;;;;;;2.87;100.00;96322.13;15286081;19;20073;-55
2023/12/22 04:14:04;;;;;;;5.63;1.45;;;;;;;2.72;100.00;96298.00;15288483;19;20021;-55
2023/12/22 04:19:31;;;;;;;4.32;0.90;;;;;;;2.20;100.00;96283.09;15289441;19;20025;-54
2023/12/22 04:24:56;;;;;;;7.70;1.40;;;;;;;1.97;100.00;96294.31;15289663;19;20022;-54
2023/12/22 04:30:21;;;;;;;5.90;1.30;;;;;;;1.84;100.00;96314.16;15282762;19;20015;-51
2023/12/22 04:35:46;;;;;;;6.13;1.30;;;;;;;1.80;100.00;96304.03;15285772;19;20015;-53
2023/12/22 04:41:12;;;;;;;4.05;0.80;;;;;;;1.83;100.00;96325.78;15283585;19;20121;-55
2023/12/22 04:46:37;;;;;;;4.18;0.80;;;;;;;1.97;100.00;96326.19;15281237;19;20250;-51
2023/12/22 04:52:04;;;;;;;3.80;0.80;;;;;;;2.14;100.00;96314.66;15284048;19;20473;-51
2023/12/22 04:57:29;;;;;;;2.92;0.80;;;;;;;2.23;100.00;96314.66;15283598;19;20015;-52
2023/12/22 05:03:00;;;;;;;5.70;0.93;;;;;;;2.27;100.00;96340.75;15279374;19;20023;-53
2023/12/22 05:08:27;;;;;;;3.90;0.90;;;;;;;2.23;100.00;96349.19;15277486;19;20470;-54
2023/12/22 05:13:52;;;;;;;4.72;1.08;;;;;;;2.15;100.00;96345.53;15284429;19;20014;-52
2023/12/22 05:19:19;;;;;;;6.43;1.25;;;;;;;2.14;100.00;96341.22;15282483;19;20049;-52
2023/12/22 05:24:46;;;;;;;4.18;1.42;;;;;;;2.14;100.00;96338.56;15284266;19;20014;-53
2023/12/22 05:30:11;;;;;;;3.95;1.10;;;;;;;2.14;100.00;96341.22;15280541;19;20049;-54
2023/12/22 05:35:36;;;;;;;7.93;1.42;;;;;;;2.13;100.00;96344.84;15282679;19;20082;-54
2023/12/22 05:41:03;;;;;;;6.13;1.27;;;;;;;2.14;100.00;96338.56;15275481;19;20021;-52
2023/12/22 05:46:28;;;;;;;7.95;1.50;;;;;;;2.14;100.00;96374.88;15282627;19;20018;-52
2023/12/22 05:51:53;;;;;;;6.30;1.35;;;;;;;2.15;100.00;96345.53;15280909;19;20024;-51
2023/12/22 05:57:20;;;;;;;7.57;1.50;;;;;;;2.25;100.00;96333.94;15282237;19;20010;-52
2023/12/22 06:02:51;;;;;;;7.55;1.80;;;;;;;2.30;100.00;96342.25;15279629;19;20026;-54
2023/12/22 06:08:16;;;;;;;8.20;1.50;;;;;;;2.34;100.00;96322.34;15274791;19;20021;-53
2023/12/22 06:13:43;;;;;;;6.43;1.30;;;;;;;2.42;100.00;96309.06;15268164;19;20526;-54
2023/12/22 06:19:09;;;;;;;7.50;1.50;;;;;;;2.59;100.00;96320.56;15271516;19;20014;-53
2023/12/22 06:24:34;;;;;;;8.50;1.70;;;;;;;2.71;100.00;96302.50;15274363;19;20025;-52
2023/12/22 06:30:01;;;;;;;6.63;1.40;;;;;;;2.76;100.00;96283.38;15278393;19;20025;-54
2023/12/22 06:35:26;;;;;;;5.43;1.40;;;;;;;2.73;100.00;96268.59;15280236;19;20621;-52
2023/12/22 06:40:52;;;;;;;4.65;1.25;;;;;;;2.69;100.00;96293.03;15276831;19;20026;-52
2023/12/22 06:46:27;;;;;;;8.02;1.45;;;;;;;2.73;100.00;96273.91;15271805;19;20014;-53
2023/12/22 06:51:52;;;;;;;7.85;1.80;;;;;;;2.76;100.00;96276.22;15271946;19;20045;-52
2023/12/22 06:57:16;;;;;;;6.05;1.40;;;;;;;2.78;100.00;96282.22;15278431;19;20467;-51
2023/12/22 07:02:52;;;;;;;7.55;1.17;;;;;;;2.81;100.00;96352.00;15275142;19;20029;-53
2023/12/22 07:08:17;;;;;;;4.53;1.67;;;;;;;2.89;100.00;96367.97;15283760;19;20014;-52
2023/12/22 07:13:41;;;;;;;5.00;1.10;;;;;;;2.82;100.00;96367.81;15295334;19;20020;-55
2023/12/22 07:19:08;;;;;;;5.07;1.20;;;;;;;2.76;100.00;96366.63;15288413;19;20028;-50
2023/12/22 07:24:33;;;;;;;3.47;0.90;;;;;;;2.72;100.00;96405.19;15293005;19;20086;-54
2023/12/22 07:29:58;;;;;;;4.40;0.90;;;;;;;2.72;100.00;96383.06;15287118;19;20018;-51
2023/12/22 07:35:27;;;;;;;2.92;0.85;;;;;;;2.79;100.00;96381.44;15292275;19;20025;-50
2023/12/22 07:40:52;;;;;;;3.85;0.82;;;;;;;2.93;100.00;96375.50;15289737;19;20109;-55
2023/12/22 07:46:16;;;;;;;2.83;0.77;;;;;;;3.08;100.00;96404.09;15290823;19;20017;-51
2023/12/22 07:51:44;;;;;;;2.50;0.60;;;;;;;3.14;100.00;96407.91;15279882;19;20022;-53
2023/12/22 07:57:09;;;;;;;1.52;0.60;;;;;;;3.04;100.00;96400.94;15288286;19;20425;-54
2023/12/22 08:02:35;;;;;;;1.88;0.60;;;;;;;2.97;100.00;96376.00;15283098;19;20461;-50
2023/12/22 08:08:02;;;;;;;3.08;0.70;;;;;;;2.88;100.00;96379.63;15286479;19;20020;-52
2023/12/22 08:13:27;;;;;;;2.03;0.65;;;;;;;2.85;100.00;96451.75;15284962;19;20018;-57
2023/12/22 08:18:52;;;;;;;4.28;0.77;;;;;;;2.58;100.00;96504.16;15290221;19;20045;-53
2023/12/22 08:24:20;;;;;;;1.38;0.60;;;;;;;2.06;100.00;96503.16;15284998;19;20018;-52
2023/12/22 08:29:46;;;;;;;4.50;0.85;;;;;;;1.72;100.00;96480.00;15287363;19;20029;-51
2023/12/22 08:35:11;;;;;;;1.55;0.57;;;;;;;1.63;100.00;96520.75;15291495;19;20066;-54
2023/12/22 08:40:38;;;;;;;4.43;1.00;;;;;;;1.54;100.00;96528.66;15290016;19;20025;-51
2023/12/22 08:46:03;;;;;;;3.00;0.90;;;;;;;1.53;100.00;96536.72;15289998;19;20014;-51
2023/12/22 08:51:28;;;;;;;9.00;1.40;;;;;;;1.64;100.00;96506.50;15285182;19;21398;-48
2023/12/22 08:56:55;;;;;;;5.35;1.38;;;;;;;1.84;100.00;96534.53;15283324;19;20014;-58
2023/12/22 09:02:27;;;;;;;8.05;1.20;;;;;;;2.15;100.00;96568.66;15285021;19;20042;-52
2023/12/22 09:07:52;;;;;;;8.60;1.40;;;;;;;2.51;100.00;96557.09;15286985;19;20011;-50
2023/12/22 09:13:19;;;;;;;8.60;1.80;;;;;;;2.81;100.00;96543.47;15283770;19;20418;-54
2023/12/22 09:18:46;;;;;;;5.78;1.30;;;;;;;3.14;100.00;96557.75;15285194;19;20037;-51
2023/12/22 09:24:12;;;;;;;8.52;1.48;;;;;;;3.48;100.00;96500.09;15283907;19;20013;-50
2023/12/22 09:29:39;;;;;;;8.45;1.77;;;;;;;3.70;100.00;96498.66;15276461;19;20010;-55
2023/12/22 09:35:05;;;;;;;8.15;1.60;;;;;;;3.90;100.00;96483.19;15285575;19;20026;-51
2023/12/22 09:40:30;;;;;;;9.65;1.55;;;;;;;4.06;100.00;96470.84;15282283;19;20020;-52
2023/12/22 09:45:58;;;;;;;6.03;1.23;;;;;;;4.19;100.00;96481.78;15283540;19;20024;-53
2023/12/22 09:51:24;;;;;;;5.43;1.40;;;;;;;4.29;100.00;96489.63;15278071;19;20015;-52
2023/12/22 09:56:50;;;;;;;5.13;1.10;;;;;;;4.31;100.00;96508.94;15283059;19;20019;-49
2023/12/22 10:02:18;;;;;;;5.82;1.60;;;;;;;4.33;100.00;96498.97;15272983;19;20025;-51
2023/12/22 10:07:44;;;;;;;7.32;1.70;;;;;;;4.31;100.00;96487.63;15280793;19;20094;-51
2023/12/22 10:13:12;;;;;;;7.35;1.40;;;;;;;4.30;100.00;96488.63;15277840;19;20576;-53
2023/12/22 10:18:39;;;;;;;4.45;1.35;;;;;;;4.33;100.00;96509.63;15280342;19;20017;-49
2023/12/22 10:24:10;;;;;;;8.52;1.75;;;;;;;4.39;100.00;96518.78;15282164;19;20020;-54
2023/12/22 10:29:35;;;;;;;6.40;1.23;;;;;;;4.43;100.00;96493.41;15279134;19;20025;-50
2023/12/22 10:35:03;;;;;;;3.88;0.90;;;;;;;4.48;100.00;96501.75;15274577;19;20018;-50
2023/12/22 10:40:28;;;;;;;9.38;1.77;;;;;;;4.53;100.00;96494.06;15277864;19;20090;-53
2023/12/22 10:45:52;;;;;;;5.43;1.27;;;;;;;4.56;100.00;96528.38;15278409;19;20710;-53
2023/12/22 10:51:20;;;;;;;5.60;1.23;;;;;;;4.61;100.00;96480.72;15275723;19;20040;-53
2023/12/22 10:56:45;;;;;;;9.35;1.35;;;;;;;4.67;100.00;96473.88;15279370;19;20082;-53
2023/12/22 11:02:15;;;;;;;4.13;1.00;;;;;;;4.62;100.00;96485.06;15271058;19;20019;-51
2023/12/22 11:07:43;;;;;;;7.95;2.00;;;;;;;4.60;100.00;96465.72;15273534;19;20698;-51
2023/12/22 11:13:11;;;;;;;4.07;1.33;;;;;;;4.57;100.00;96487.38;15275354;19;20017;-54
2023/12/22 11:18:37;;;;;;;4.82;1.25;;;;;;;4.57;100.00;96462.56;15275205;19;20006;-54
2023/12/22 11:24:06;;;;;;;4.53;1.20;;;;;;;4.60;100.00;96457.72;15277393;19;20021;-50
2023/12/22 11:29:34;;;;;;;5.03;1.30;;;;;;;4.68;100.00;96445.34;15017795;19;5001081;-51
2023/12/22 11:35:02;;;;;;;4.50;1.17;;;;;;;4.71;100.00;96485.00;15276315;19;20025;-52
2023/12/22 11:40:30;;;;;;;5.50;1.35;;;;;;;4.76;100.00;96419.47;15273311;19;20359;-49
2023/12/22 11:45:56;;;;;;;5.45;1.27;;;;;;;4.76;100.00;96416.00;15274588;19;20635;-51
2023/12/22 11:51:22;;;;;;;4.50;1.00;;;;;;;4.78;100.00;96403.28;15272015;19;20022;-49
2023/12/22 11:56:51;;;;;;;5.85;1.30;;;;;;;4.76;100.00;96414.13;15290894;19;20354;-53
2023/12/22 12:02:22;;;;;;;5.47;0.85;;;;;;;4.71;100.00;96397.00;15283860;19;20026;-53
2023/12/22 12:07:49;;;;;;;3.57;0.97;;;;;;;4.66;100.00;96407.34;15283637;19;20018;-51
2023/12/22 12:13:17;;;;;;;3.80;0.65;;;;;;;4.59;100.00;96375.19;15284344;19;20288;-51
2023/12/22 12:18:44;;;;;;;0.90;0.40;;;;;;;4.55;100.00;96377.38;15288232;19;20351;-52
2023/12/22 12:24:09;;;;;;;0.55;0.30;;;;;;;4.53;100.00;96360.72;15290112;19;20017;-50
2023/12/22 12:29:39;;;;;;;0.90;0.35;;;;;;;4.51;100.00;96367.25;15286891;19;20020;-54
2023/12/22 12:35:04;;;;;;;0.88;0.40;;;;;;;4.52;100.00;96360.91;15288844;19;21957;-51
2023/12/22 12:40:33;;;;;;;1.95;0.70;;;;;;;4.53;100.00;96373.25;15281841;19;20651;-51
2023/12/22 12:46:03;;;;;;;1.10;0.35;;;;;;;4.54;100.00;96375.72;15287709;19;20371;-52
2023/12/22 12:51:28;;;;;;;0.77;0.40;;;;;;;4.57;100.00;96395.91;15285530;19;20021;-51
2023/12/22 12:56:54;;;;;;;1.58;0.60;;;;;;;4.58;100.00;96398.38;15287666;19;20017;-54
2023/12/22 13:02:28;;;;;;;2.08;0.47;;;;;;;4.62;100.00;96391.72;15282645;19;20475;-52
2023/12/22 13:07:53;;;;;;;1.17;0.50;;;;;;;4.66;100.00;96375.34;15286137;19;20021;-51
2023/12/22 13:13:17;;;;;;;0.95;0.50;;;;;;;4.70;100.00;96344.66;15278620;19;20737;-49
2023/12/22 13:18:45;;;;;;;2.08;0.65;;;;;;;4.70;100.00;96363.31;15285172;19;20033;-53
2023/12/22 13:24:20;;;;;;;2.83;0.85;;;;;;;4.73;100.00;96352.31;15286487;19;20467;-51
2023/12/22 13:29:48;;;;;;;2.88;0.70;;;;;;;4.77;100.00;96350.94;15284665;19;20026;-53
2023/12/22 13:35:16;;;;;;;4.20;0.85;;;;;;;4.82;100.00;96375.25;15286220;19;20078;-53
2023/12/22 13:40:41;;;;;;;1.92;0.60;;;;;;;4.82;100.00;96372.59;15282185;19;20019;-49
2023/12/22 13:46:07;;;;;;;1.73;0.60;;;;;;;4.86;100.00;96387.25;15279631;19;20367;-49
2023/12/22 13:51:44;;;;;;;2.10;0.60;;;;;;;4.89;100.00;96404.75;15280692;19;20014;-51
2023/12/22 13:57:09;;;;;;;2.40;0.60;;;;;;;4.92;100.00;96370.53;15284494;19;20031;-52
2023/12/22 14:02:34;;;;;;;1.65;0.45;;;;;;;4.92;100.00;96410.53;15279733;19;20074;-52
2023/12/22 14:08:01;;;;;;;4.18;0.70;;;;;;;4.96;100.00;96372.84;15282258;19;21427;-51
2023/12/22 14:13:27;;;;;;;1.90;0.50;;;;;;;4.94;100.00;96373.00;15279258;19;20022;-52
2023/12/22 14:18:51;;;;;;;2.58;0.57;;;;;;;4.94;100.00;96376.53;15276691;19;20014;-50
2023/12/22 14:24:18;;;;;;;1.23;0.32;;;;;;;4.94;100.00;96373.84;15280770;19;20653;-50
2023/12/22 14:29:44;;;;;;;1.60;0.50;;;;;;;4.97;100.00;96390.53;15281672;19;20737;-53
2023/12/22 14:35:10;;;;;;;0.68;0.28;;;;;;;5.00;100.00;96374.16;15279467;19;20049;-57
2023/12/22 14:40:37;;;;;;;0.60;0.30;;;;;;;4.99;100.00;96375.16;15280571;19;20021;-53
2023/12/22 14:46:02;;;;;;;0.57;0.30;;;;;;;5.02;100.00;96390.81;15280861;19;20014;-50
2023/12/22 14:51:26;;;;;;;0.55;0.40;;;;;;;5.00;100.00;96398.19;15274441;19;20020;-53
2023/12/22 14:56:54;;;;;;;0.65;0.35;;;;;;;5.04;100.00;96378.97;15281920;19;20025;-52
2023/12/22 15:02:25;;;;;;;0.50;0.35;;;;;;;5.05;100.00;96379.78;15278545;19;20026;-49
2023/12/22 15:07:53;;;;;;;0.90;0.50;;;;;;;5.02;100.00;96394.31;15280108;19;20892;-52
2023/12/22 15:13:20;;;;;;;1.33;0.47;;;;;;;5.03;100.00;96379.13;15276088;19;20082;-51
2023/12/22 15:18:45;;;;;;;0.38;0.30;;;;;;;5.06;100.00;96381.44;15277647;19;20025;-51
2023/12/22 15:24:09;;;;;;;0.52;0.30;;;;;;;5.04;100.00;96383.47;15271824;19;20010;-53
2023/12/22 15:29:37;;;;;;;0.90;0.32;;;;;;;5.03;100.00;96411.16;15278629;19;20019;-54
2023/12/22 15:35:01;;;;;;;0.30;0.22;;;;;;;5.02;100.00;96380.97;15292148;19;20018;-52
2023/12/22 15:40:26;;;;;;;0.55;0.30;;;;;;;4.87;100.00;96366.72;15290349;19;20032;-52
2023/12/22 15:45:55;;;;;;;0.75;0.30;;;;;;;4.70;100.00;96387.31;15291742;19;20081;-53
2023/12/22 15:51:20;;;;;;;1.02;0.30;;;;;;;4.60;100.00;96383.03;15288081;19;20018;-51
2023/12/22 15:56:44;;;;;;;0.45;0.30;;;;;;;4.55;100.00;96385.38;15288454;19;20021;-52
2023/12/22 16:02:19;;;;;;;1.35;0.40;;;;;;;4.47;100.00;96382.78;15284982;19;20028;-52
2023/12/22 16:07:44;;;;;;;3.00;0.43;;;;;;;4.34;100.00;96391.31;15291940;19;20032;-52
2023/12/22 16:13:08;;;;;;;1.10;0.22;;;;;;;4.10;100.00;96403.72;15285992;19;20396;-50
2023/12/22 16:18:38;;;;;;;0.77;0.40;;;;;;;3.87;100.00;96386.78;15290572;19;20358;-51
2023/12/22 16:24:02;;;;;;;0.20;0.20;;;;;;;3.73;100.00;96393.63;15291855;19;20014;-51
2023/12/22 16:29:27;;;;;;;0.25;0.20;;;;;;;3.62;100.00;96405.47;15281060;19;20471;-50
2023/12/22 16:34:54;;;;;;;1.00;0.20;;;;;;;3.59;100.00;96425.25;15289206;19;20017;-50
2023/12/22 16:40:19;;;;;;;0.82;0.40;;;;;;;3.60;100.00;96423.44;15288640;19;20393;-52
2023/12/22 16:45:43;;;;;;;0.75;0.30;;;;;;;3.64;100.00;96414.13;15288625;19;20405;-50
2023/12/22 16:51:10;;;;;;;0.70;0.30;;;;;;;3.69;100.00;96420.59;15287365;19;20477;-53
2023/12/22 16:56:35;;;;;;;0.30;0.22;;;;;;;3.77;100.00;96432.25;15288588;19;20028;-51
2023/12/22 17:02:02;;;;;;;1.40;0.40;;;;;;;3.84;100.00;96433.22;15278922;19;20470;-49
2023/12/22 17:07:49;;;;;;;0.32;0.25;;;;;;;3.95;100.00;96430.19;15288054;19;20023;-53
2023/12/22 17:13:14;;;;;;;0.70;0.38;;;;;;;4.05;100.00;96448.69;15283657;19;20017;-55
2023/12/22 17:18:39;;;;;;;0.73;0.40;;;;;;;4.13;100.00;96446.00;15286739;19;20018;-51
2023/12/22 17:24:07;;;;;;;0.50;0.30;;;;;;;4.21;100.00;96436.34;15287039;19;20058;-51
2023/12/22 17:29:31;;;;;;;0.45;0.30;;;;;;;4.26;100.00;96428.66;15287683;19;20018;-49
2023/12/22 17:34:56;;;;;;;0.30;0.30;;;;;;;4.29;100.00;96442.47;15283753;19;20016;-53
2023/12/22 17:40:23;;;;;;;0.28;0.28;;;;;;;4.34;100.00;96430.47;15286409;19;20014;-50
2023/12/22 17:45:48;;;;;;;0.30;0.30;;;;;;;4.35;100.00;96405.47;15287804;19;20020;-50
2023/12/22 17:51:13;;;;;;;0.20;0.20;;;;;;;4.42;100.00;96371.78;15284355;19;20029;-55
2023/12/22 17:56:41;;;;;;;0.25;0.20;;;;;;;4.54;100.00;96458.38;15286585;19;20011;-53
2023/12/22 18:02:06;;;;;;;0.20;0.20;;;;;;;4.61;100.00;96422.03;15283182;19;20023;-54
2023/12/22 18:07:31;;;;;;;0.20;0.20;;;;;;;4.66;100.00;96458.84;15287874;19;20074;-54
2023/12/22 18:12:58;;;;;;;0.20;0.20;;;;;;;4.75;100.00;96427.66;15285936;19;20573;-55
2023/12/22 18:18:23;;;;;;;0.20;0.20;;;;;;;4.80;100.00;96419.94;15286426;19;20105;-51
2023/12/22 18:23:47;;;;;;;0.20;0.20;;;;;;;4.86;100.00;96432.59;15284822;19;20021;-53
2023/12/22 18:29:15;;;;;;;0.00;0.00;;;;;;;4.92;100.00;96431.91;15284798;19;20025;-51
2023/12/22 18:34:40;;;;;;;0.65;0.10;;;;;;;5.01;100.00;96472.72;15280164;19;20006;-56
2023/12/22 18:40:09;;;;;;;0.17;0.10;;;;;;;5.05;100.00;96470.53;15279015;19;20011;-53
2023/12/22 18:45:39;;;;;;;5.60;3.83;;;;;;;5.05;100.00;96443.84;15283166;19;20015;-52
2023/12/22 18:51:04;;;;;;;0.35;0.20;;;;;;;5.10;100.00;96420.13;15280524;19;20019;-50
2023/12/22 18:56:29;;;;;;;0.82;0.20;;;;;;;5.14;100.00;96463.31;15282499;19;20086;-54
2023/12/22 19:02:03;;;;;;;0.10;0.10;;;;;;;5.20;100.00;96452.75;15276143;19;20013;-54
2023/12/22 19:07:48;;;;;;;0.30;0.10;;;;;;;5.23;100.00;96455.06;15275024;19;20021;-54
2023/12/22 19:13:13;;;;;;;0.10;0.10;;;;;;;5.28;100.00;96459.06;15270538;19;20018;-53
2023/12/22 19:18:41;;;;;;;0.38;0.20;;;;;;;5.27;100.00;96430.69;15277210;19;20078;-51
2023/12/22 19:23:59;;;;;;;0.43;0.20;;;;;;;5.29;100.00;96421.53;15276403;19;20018;-53
2023/12/22 19:29:25;;;;;;;0.32;0.15;;;;;;;5.30;100.00;96441.03;15274650;19;20775;-50
2023/12/22 19:34:53;;;;;;;0.10;0.10;;;;;;;5.31;100.00;96442.69;15263919;19;20023;-53
2023/12/22 19:40:18;;;;;;;0.10;0.10;;;;;;;5.34;100.00;96458.38;15278214;19;20017;-50
2023/12/22 19:45:43;;;;;;;0.20;0.10;;;;;;;5.47;100.00;96417.72;15282322;19;20018;-52
2023/12/22 19:51:10;;;;;;;0.63;0.10;;;;;;;5.45;100.00;96444.59;15280872;19;20025;-51
2023/12/22 19:56:35;;;;;;;0.63;0.20;;;;;;;5.52;100.00;96455.41;15283137;19;20085;-54
2023/12/22 20:02:00;;;;;;;0.10;0.10;;;;;;;5.57;100.00;96433.50;15279873;19;20021;-50
2023/12/22 20:07:35;;;;;;;1.85;0.17;;;;;;;5.53;100.00;96441.88;15284256;19;20022;-50
2023/12/22 20:13:00;;;;;;;0.55;0.40;;;;;;;5.51;100.00;96459.09;15275297;19;20094;-51
2023/12/22 20:18:24;;;;;;;0.30;0.20;;;;;;;5.59;100.00;96508.91;15296112;19;20030;-49
2023/12/22 20:23:53;;;;;;;0.35;0.20;;;;;;;5.64;100.00;96506.56;15297248;19;20010;-54
2023/12/22 20:29:18;;;;;;;0.65;0.20;;;;;;;5.64;100.00;96485.19;15296063;19;20010;-50
2023/12/22 20:34:43;;;;;;;0.10;0.10;;;;;;;5.62;100.00;96505.91;15290935;19;20034;-54
2023/12/22 20:40:10;;;;;;;1.10;0.32;;;;;;;5.60;100.00;96458.00;15272478;19;20014;-54
2023/12/22 20:45:36;;;;;;;0.77;0.40;;;;;;;5.58;100.00;96486.72;15288830;19;20029;-53
2023/12/22 20:51:00;;;;;;;0.65;0.30;;;;;;;5.57;100.00;96505.63;15291643;19;20018;-51
2023/12/22 20:56:28;;;;;;;0.57;0.20;;;;;;;5.59;100.00;96517.78;15294968;19;20379;-51
2023/12/22 21:01:54;;;;;;;0.50;0.20;;;;;;;5.57;100.00;96484.25;15291344;19;20006;-50
2023/12/22 21:07:25;;;;;;;1.23;0.38;;;;;;;5.51;100.00;96486.59;15293660;19;20025;-50
2023/12/22 21:12:53;;;;;;;0.37;0.10;;;;;;;5.51;100.00;96507.97;15289546;19;20016;-50
2023/12/22 21:18:17;;;;;;;2.10;0.40;;;;;;;5.51;100.00;96510.66;15289813;19;20755;-51
2023/12/22 21:23:42;;;;;;;1.77;0.40;;;;;;;5.59;100.00;96528.47;15287271;19;20482;-52
2023/12/22 21:29:09;;;;;;;0.82;0.38;;;;;;;5.60;100.00;96550.66;15291708;19;20098;-52
2023/12/22 21:34:34;;;;;;;0.50;0.30;;;;;;;5.60;100.00;96537.28;15291580;19;20082;-51
2023/12/22 21:39:58;;;;;;;0.70;0.43;;;;;;;5.63;100.00;96547.63;15293283;19;20018;-53
2023/12/22 21:45:29;;;;;;;0.98;0.30;;;;;;;5.61;100.00;96563.00;15293608;19;20024;-53
2023/12/22 21:50:55;;;;;;;0.83;0.23;;;;;;;5.51;100.00;96593.44;15287354;19;20465;-50
2023/12/22 21:56:24;;;;;;;0.90;0.35;;;;;;;5.47;100.00;96613.47;15291758;19;20119;-50
2023/12/22 22:01:55;;;;;;;1.75;0.30;;;;;;;5.50;100.00;96617.66;15288467;19;20402;-50
2023/12/22 22:07:26;;;;;;;1.33;0.47;;;;;;;5.44;100.00;96624.53;15281713;19;20019;-50
2023/12/22 22:12:51;;;;;;;0.47;0.30;;;;;;;5.13;100.00;96638.63;15278389;19;20632;-51
2023/12/22 22:18:18;;;;;;;1.30;0.50;;;;;;;4.58;100.00;96657.06;15281612;19;21124;-54
2023/12/22 22:23:43;;;;;;;2.67;0.60;;;;;;;4.32;100.00;96658.03;15278584;19;20014;-54
2023/12/22 22:29:11;;;;;;;1.15;0.45;;;;;;;4.27;100.00;96667.53;15289984;19;20479;-52
2023/12/22 22:34:40;;;;;;;1.13;0.25;;;;;;;4.23;100.00;96691.03;15287733;19;20036;-53
2023/12/22 22:40:05;;;;;;;1.40;0.50;;;;;;;4.27;100.00;96699.53;15287642;19;20085;-51
2023/12/22 22:45:30;;;;;;;0.75;0.30;;;;;;;4.32;100.00;96694.53;15290005;19;20066;-53
2023/12/22 22:50:57;;;;;;;0.93;0.30;;;;;;;4.40;100.00;96715.06;15287635;19;20099;-50
2023/12/22 22:56:22;;;;;;;0.43;0.32;;;;;;;4.50;100.00;96730.88;15276215;19;20031;-52
2023/12/22 23:01:46;;;;;;;2.08;0.30;;;;;;;4.57;100.00;96713.25;15282696;19;20757;-51
2023/12/22 23:07:14;;;;;;;1.95;0.35;;;;;;;4.59;100.00;96701.41;15279917;19;20026;-53
2023/12/22 23:12:38;;;;;;;0.82;0.32;;;;;;;4.58;100.00;96709.56;15284117;19;20085;-50
2023/12/22 23:18:03;;;;;;;1.08;0.40;;;;;;;4.56;100.00;96707.06;15289152;19;20021;-52
2023/12/22 23:23:30;;;;;;;1.80;0.40;;;;;;;4.53;100.00;96712.72;15282147;19;20014;-50
2023/12/22 23:28:55;;;;;;;2.03;0.40;;;;;;;4.51;100.00;96733.41;15281840;19;20014;-54
2023/12/22 23:34:19;;;;;;;1.35;0.50;;;;;;;4.56;100.00;96748.91;15282951;19;20022;-50
2023/12/22 23:39:47;;;;;;;1.48;0.30;;;;;;;4.55;100.00;96732.06;15283886;19;20021;-54
2023/12/22 23:45:12;;;;;;;1.48;0.22;;;;;;;4.49;100.00;96738.06;15287213;19;20017;-52
2023/12/22 23:50:37;;;;;;;1.35;0.20;;;;;;;4.37;100.00;96766.03;15290791;19;20021;-50
2023/12/22 23:56:04;;;;;;;1.58;0.30;;;;;;;4.28;100.00;96824.66;15295883;19;20022;-50
